sensor_id;sensor_type;location;lat;lon;timestamp;P1;durP1;ratioP1;P2;durP2;ratioP2
68923;SDS011;55961;52.156;20.942;2023-06-26T00:01:27;11.05;;;6.03;;
68923;SDS011;55961;52.156;20.942;2023-06-26T00:03:59;13.70;;;5.97;;
68923;SDS011;55961;52.156;20.942;2023-06-26T00:06:26;12.93;;;6.60;;
68923;SDS011;55961;52.156;20.942;2023-06-26T00:08:53;12.88;;;6.63;;
68923;SDS011;55961;52.156;20.942;2023-06-26T00:11:20;12.20;;;6.80;;
68923;SDS011;55961;52.156;20.942;2023-06-26T00:13:46;11.20;;;6.68;;
68923;SDS011;55961;52.156;20.942;2023-06-26T00:16:13;10.32;;;6.40;;
68923;SDS011;55961;52.156;20.942;2023-06-26T00:18:38;10.37;;;6.47;;
68923;SDS011;55961;52.156;20.942;2023-06-26T00:21:04;9.95;;;5.95;;
68923;SDS011;55961;52.156;20.942;2023-06-26T00:23:30;11.95;;;6.53;;
68923;SDS011;55961;52.156;20.942;2023-06-26T00:25:58;10.63;;;6.70;;
68923;SDS011;55961;52.156;20.942;2023-06-26T00:28:24;12.35;;;7.00;;
68923;SDS011;55961;52.156;20.942;2023-06-26T00:30:50;11.55;;;6.32;;
68923;SDS011;55961;52.156;20.942;2023-06-26T00:33:15;15.33;;;6.37;;
68923;SDS011;55961;52.156;20.942;2023-06-26T00:35:41;11.63;;;6.38;;
68923;SDS011;55961;52.156;20.942;2023-06-26T00:38:07;11.45;;;6.10;;
68923;SDS011;55961;52.156;20.942;2023-06-26T00:40:33;11.65;;;6.63;;
68923;SDS011;55961;52.156;20.942;2023-06-26T00:42:59;10.60;;;6.40;;
68923;SDS011;55961;52.156;20.942;2023-06-26T00:45:25;10.45;;;6.57;;
68923;SDS011;55961;52.156;20.942;2023-06-26T00:47:51;15.02;;;7.15;;
68923;SDS011;55961;52.156;20.942;2023-06-26T00:50:17;12.17;;;6.87;;
68923;SDS011;55961;52.156;20.942;2023-06-26T00:52:43;13.02;;;6.45;;
68923;SDS011;55961;52.156;20.942;2023-06-26T00:55:10;12.85;;;6.75;;
68923;SDS011;55961;52.156;20.942;2023-06-26T00:57:36;13.10;;;6.57;;
68923;SDS011;55961;52.156;20.942;2023-06-26T01:00:03;11.80;;;6.55;;
68923;SDS011;55961;52.156;20.942;2023-06-26T01:02:29;11.83;;;6.37;;
68923;SDS011;55961;52.156;20.942;2023-06-26T01:04:59;12.32;;;6.57;;
68923;SDS011;55961;52.156;20.942;2023-06-26T01:07:28;13.90;;;6.90;;
68923;SDS011;55961;52.156;20.942;2023-06-26T01:09:55;12.13;;;6.88;;
68923;SDS011;55961;52.156;20.942;2023-06-26T01:12:21;10.93;;;6.32;;
68923;SDS011;55961;52.156;20.942;2023-06-26T01:14:47;12.23;;;6.63;;
68923;SDS011;55961;52.156;20.942;2023-06-26T01:17:13;10.77;;;6.35;;
68923;SDS011;55961;52.156;20.942;2023-06-26T01:19:40;12.70;;;7.03;;
68923;SDS011;55961;52.156;20.942;2023-06-26T01:25:03;10.93;;;6.77;;
68923;SDS011;55961;52.156;20.942;2023-06-26T01:27:32;13.32;;;7.38;;
68923;SDS011;55961;52.156;20.942;2023-06-26T01:30:00;10.77;;;6.32;;
68923;SDS011;55961;52.156;20.942;2023-06-26T01:32:30;11.55;;;6.78;;
68923;SDS011;55961;52.156;20.942;2023-06-26T01:34:59;13.88;;;7.07;;
68923;SDS011;55961;52.156;20.942;2023-06-26T01:37:25;12.33;;;6.73;;
68923;SDS011;55961;52.156;20.942;2023-06-26T01:39:51;11.00;;;7.05;;
68923;SDS011;55961;52.156;20.942;2023-06-26T01:42:17;12.90;;;7.38;;
68923;SDS011;55961;52.156;20.942;2023-06-26T01:44:46;12.60;;;7.60;;
68923;SDS011;55961;52.156;20.942;2023-06-26T01:47:14;13.80;;;7.68;;
68923;SDS011;55961;52.156;20.942;2023-06-26T01:49:54;12.23;;;7.10;;
68923;SDS011;55961;52.156;20.942;2023-06-26T01:57:46;12.82;;;7.20;;
68923;SDS011;55961;52.156;20.942;2023-06-26T02:00:16;13.75;;;6.95;;
68923;SDS011;55961;52.156;20.942;2023-06-26T02:02:44;13.47;;;6.87;;
68923;SDS011;55961;52.156;20.942;2023-06-26T02:05:11;12.45;;;7.47;;
68923;SDS011;55961;52.156;20.942;2023-06-26T02:07:38;12.38;;;7.25;;
68923;SDS011;55961;52.156;20.942;2023-06-26T02:10:04;12.80;;;7.00;;
68923;SDS011;55961;52.156;20.942;2023-06-26T02:12:30;12.60;;;7.60;;
68923;SDS011;55961;52.156;20.942;2023-06-26T02:14:57;14.47;;;7.43;;
68923;SDS011;55961;52.156;20.942;2023-06-26T02:17:22;13.32;;;7.13;;
68923;SDS011;55961;52.156;20.942;2023-06-26T02:19:48;15.02;;;7.57;;
68923;SDS011;55961;52.156;20.942;2023-06-26T02:22:15;11.67;;;7.37;;
68923;SDS011;55961;52.156;20.942;2023-06-26T02:24:42;14.13;;;7.53;;
68923;SDS011;55961;52.156;20.942;2023-06-26T02:27:08;14.40;;;7.45;;
68923;SDS011;55961;52.156;20.942;2023-06-26T02:29:35;13.13;;;7.40;;
68923;SDS011;55961;52.156;20.942;2023-06-26T02:32:01;14.52;;;7.28;;
68923;SDS011;55961;52.156;20.942;2023-06-26T02:34:28;13.70;;;6.77;;
68923;SDS011;55961;52.156;20.942;2023-06-26T02:36:55;12.02;;;7.00;;
68923;SDS011;55961;52.156;20.942;2023-06-26T02:39:22;13.35;;;7.47;;
68923;SDS011;55961;52.156;20.942;2023-06-26T02:41:48;11.68;;;7.13;;
68923;SDS011;55961;52.156;20.942;2023-06-26T02:44:14;11.95;;;7.03;;
68923;SDS011;55961;52.156;20.942;2023-06-26T02:46:40;12.03;;;6.60;;
68923;SDS011;55961;52.156;20.942;2023-06-26T02:49:06;11.13;;;6.45;;
68923;SDS011;55961;52.156;20.942;2023-06-26T02:51:32;14.70;;;7.13;;
68923;SDS011;55961;52.156;20.942;2023-06-26T02:53:59;15.65;;;6.50;;
68923;SDS011;55961;52.156;20.942;2023-06-26T02:56:26;13.17;;;7.10;;
68923;SDS011;55961;52.156;20.942;2023-06-26T02:58:55;12.35;;;6.75;;
68923;SDS011;55961;52.156;20.942;2023-06-26T03:01:21;12.32;;;6.95;;
68923;SDS011;55961;52.156;20.942;2023-06-26T03:03:58;15.45;;;7.75;;
68923;SDS011;55961;52.156;20.942;2023-06-26T03:06:26;13.13;;;7.32;;
68923;SDS011;55961;52.156;20.942;2023-06-26T03:08:53;13.63;;;7.93;;
68923;SDS011;55961;52.156;20.942;2023-06-26T03:11:19;13.95;;;7.60;;
68923;SDS011;55961;52.156;20.942;2023-06-26T03:13:45;15.57;;;8.02;;
68923;SDS011;55961;52.156;20.942;2023-06-26T03:16:11;11.80;;;6.72;;
68923;SDS011;55961;52.156;20.942;2023-06-26T03:18:38;13.90;;;7.60;;
68923;SDS011;55961;52.156;20.942;2023-06-26T03:21:06;14.07;;;7.95;;
68923;SDS011;55961;52.156;20.942;2023-06-26T03:23:35;14.48;;;7.90;;
68923;SDS011;55961;52.156;20.942;2023-06-26T03:26:02;12.35;;;7.80;;
68923;SDS011;55961;52.156;20.942;2023-06-26T03:28:28;14.38;;;7.82;;
68923;SDS011;55961;52.156;20.942;2023-06-26T03:30:56;14.77;;;8.07;;
68923;SDS011;55961;52.156;20.942;2023-06-26T03:33:22;15.90;;;8.15;;
68923;SDS011;55961;52.156;20.942;2023-06-26T03:35:48;14.27;;;8.30;;
68923;SDS011;55961;52.156;20.942;2023-06-26T03:38:14;14.65;;;8.30;;
68923;SDS011;55961;52.156;20.942;2023-06-26T03:40:40;14.67;;;8.23;;
68923;SDS011;55961;52.156;20.942;2023-06-26T03:43:06;14.77;;;8.48;;
68923;SDS011;55961;52.156;20.942;2023-06-26T03:45:32;13.88;;;8.27;;
68923;SDS011;55961;52.156;20.942;2023-06-26T03:47:58;15.32;;;7.97;;
68923;SDS011;55961;52.156;20.942;2023-06-26T03:50:24;15.60;;;8.10;;
68923;SDS011;55961;52.156;20.942;2023-06-26T03:52:50;15.95;;;8.93;;
68923;SDS011;55961;52.156;20.942;2023-06-26T03:55:17;13.07;;;8.30;;
68923;SDS011;55961;52.156;20.942;2023-06-26T03:57:43;13.10;;;8.07;;
68923;SDS011;55961;52.156;20.942;2023-06-26T04:00:09;15.10;;;8.63;;
68923;SDS011;55961;52.156;20.942;2023-06-26T04:02:39;15.55;;;8.65;;
68923;SDS011;55961;52.156;20.942;2023-06-26T04:05:05;18.27;;;8.63;;
68923;SDS011;55961;52.156;20.942;2023-06-26T04:07:32;17.73;;;8.38;;
68923;SDS011;55961;52.156;20.942;2023-06-26T04:09:59;13.53;;;7.87;;
68923;SDS011;55961;52.156;20.942;2023-06-26T04:12:25;13.82;;;7.57;;
68923;SDS011;55961;52.156;20.942;2023-06-26T04:14:51;13.32;;;8.00;;
68923;SDS011;55961;52.156;20.942;2023-06-26T04:17:17;14.98;;;7.70;;
68923;SDS011;55961;52.156;20.942;2023-06-26T04:19:43;13.30;;;8.05;;
68923;SDS011;55961;52.156;20.942;2023-06-26T04:22:09;52.73;;;13.77;;
68923;SDS011;55961;52.156;20.942;2023-06-26T04:24:38;21.63;;;8.82;;
68923;SDS011;55961;52.156;20.942;2023-06-26T04:27:04;15.02;;;8.02;;
68923;SDS011;55961;52.156;20.942;2023-06-26T04:29:31;12.13;;;7.57;;
68923;SDS011;55961;52.156;20.942;2023-06-26T04:31:57;16.40;;;7.93;;
68923;SDS011;55961;52.156;20.942;2023-06-26T04:34:27;15.03;;;7.70;;
68923;SDS011;55961;52.156;20.942;2023-06-26T04:36:53;14.10;;;7.70;;
68923;SDS011;55961;52.156;20.942;2023-06-26T04:39:20;13.35;;;7.53;;
68923;SDS011;55961;52.156;20.942;2023-06-26T04:41:46;14.18;;;7.72;;
68923;SDS011;55961;52.156;20.942;2023-06-26T04:44:12;14.37;;;7.73;;
68923;SDS011;55961;52.156;20.942;2023-06-26T04:46:38;13.75;;;7.72;;
68923;SDS011;55961;52.156;20.942;2023-06-26T04:49:07;11.95;;;7.15;;
68923;SDS011;55961;52.156;20.942;2023-06-26T04:51:34;16.70;;;7.88;;
68923;SDS011;55961;52.156;20.942;2023-06-26T04:54:08;14.23;;;8.75;;
68923;SDS011;55961;52.156;20.942;2023-06-26T04:56:45;12.77;;;7.53;;
68923;SDS011;55961;52.156;20.942;2023-06-26T04:59:15;14.15;;;8.50;;
68923;SDS011;55961;52.156;20.942;2023-06-26T05:01:41;13.23;;;7.72;;
68923;SDS011;55961;52.156;20.942;2023-06-26T05:04:07;13.50;;;8.27;;
68923;SDS011;55961;52.156;20.942;2023-06-26T05:06:33;13.10;;;7.72;;
68923;SDS011;55961;52.156;20.942;2023-06-26T05:08:59;12.53;;;7.90;;
68923;SDS011;55961;52.156;20.942;2023-06-26T05:11:25;12.68;;;8.30;;
68923;SDS011;55961;52.156;20.942;2023-06-26T05:13:51;14.20;;;8.18;;
68923;SDS011;55961;52.156;20.942;2023-06-26T05:16:17;12.25;;;8.38;;
68923;SDS011;55961;52.156;20.942;2023-06-26T05:18:43;12.20;;;7.40;;
68923;SDS011;55961;52.156;20.942;2023-06-26T05:21:09;12.60;;;7.93;;
68923;SDS011;55961;52.156;20.942;2023-06-26T05:23:35;13.40;;;8.38;;
68923;SDS011;55961;52.156;20.942;2023-06-26T05:26:02;14.98;;;8.40;;
68923;SDS011;55961;52.156;20.942;2023-06-26T05:28:28;14.77;;;7.83;;
68923;SDS011;55961;52.156;20.942;2023-06-26T05:30:57;12.90;;;7.97;;
68923;SDS011;55961;52.156;20.942;2023-06-26T05:33:24;11.70;;;7.80;;
68923;SDS011;55961;52.156;20.942;2023-06-26T05:35:52;27.75;;;10.43;;
68923;SDS011;55961;52.156;20.942;2023-06-26T05:38:19;14.70;;;8.63;;
68923;SDS011;55961;52.156;20.942;2023-06-26T05:40:45;14.60;;;7.47;;
68923;SDS011;55961;52.156;20.942;2023-06-26T05:43:12;13.20;;;8.27;;
68923;SDS011;55961;52.156;20.942;2023-06-26T05:45:38;12.85;;;8.00;;
68923;SDS011;55961;52.156;20.942;2023-06-26T05:48:05;15.43;;;8.23;;
68923;SDS011;55961;52.156;20.942;2023-06-26T05:50:31;13.25;;;8.52;;
68923;SDS011;55961;52.156;20.942;2023-06-26T05:52:57;12.47;;;7.90;;
68923;SDS011;55961;52.156;20.942;2023-06-26T05:55:23;12.20;;;8.13;;
68923;SDS011;55961;52.156;20.942;2023-06-26T05:57:50;14.77;;;8.13;;
68923;SDS011;55961;52.156;20.942;2023-06-26T06:00:17;13.27;;;8.40;;
68923;SDS011;55961;52.156;20.942;2023-06-26T06:02:43;15.05;;;8.43;;
68923;SDS011;55961;52.156;20.942;2023-06-26T06:05:09;13.03;;;7.73;;
68923;SDS011;55961;52.156;20.942;2023-06-26T06:07:35;18.88;;;12.00;;
68923;SDS011;55961;52.156;20.942;2023-06-26T06:10:02;12.55;;;7.22;;
68923;SDS011;55961;52.156;20.942;2023-06-26T06:12:29;11.02;;;7.07;;
68923;SDS011;55961;52.156;20.942;2023-06-26T06:14:55;14.03;;;7.27;;
68923;SDS011;55961;52.156;20.942;2023-06-26T06:17:22;11.10;;;7.13;;
68923;SDS011;55961;52.156;20.942;2023-06-26T06:19:48;12.05;;;7.07;;
68923;SDS011;55961;52.156;20.942;2023-06-26T06:22:14;10.65;;;7.03;;
68923;SDS011;55961;52.156;20.942;2023-06-26T06:24:42;14.35;;;7.57;;
68923;SDS011;55961;52.156;20.942;2023-06-26T06:27:09;12.27;;;6.53;;
68923;SDS011;55961;52.156;20.942;2023-06-26T06:29:35;12.68;;;6.30;;
68923;SDS011;55961;52.156;20.942;2023-06-26T06:32:01;10.75;;;6.32;;
68923;SDS011;55961;52.156;20.942;2023-06-26T06:34:27;9.77;;;6.88;;
68923;SDS011;55961;52.156;20.942;2023-06-26T06:36:54;11.60;;;6.07;;
68923;SDS011;55961;52.156;20.942;2023-06-26T06:39:20;8.65;;;5.78;;
68923;SDS011;55961;52.156;20.942;2023-06-26T06:41:46;9.00;;;5.78;;
68923;SDS011;55961;52.156;20.942;2023-06-26T06:44:12;10.82;;;6.35;;
68923;SDS011;55961;52.156;20.942;2023-06-26T06:46:38;8.10;;;5.27;;
68923;SDS011;55961;52.156;20.942;2023-06-26T06:49:04;10.05;;;5.80;;
68923;SDS011;55961;52.156;20.942;2023-06-26T06:51:30;8.70;;;5.30;;
68923;SDS011;55961;52.156;20.942;2023-06-26T06:53:56;11.35;;;5.57;;
68923;SDS011;55961;52.156;20.942;2023-06-26T06:56:22;16.07;;;5.73;;
68923;SDS011;55961;52.156;20.942;2023-06-26T06:58:48;12.02;;;6.00;;
68923;SDS011;55961;52.156;20.942;2023-06-26T07:01:14;8.33;;;5.23;;
68923;SDS011;55961;52.156;20.942;2023-06-26T07:03:40;9.82;;;5.03;;
68923;SDS011;55961;52.156;20.942;2023-06-26T07:06:06;7.57;;;5.00;;
68923;SDS011;55961;52.156;20.942;2023-06-26T07:08:32;7.90;;;4.67;;
68923;SDS011;55961;52.156;20.942;2023-06-26T07:10:58;7.88;;;4.90;;
68923;SDS011;55961;52.156;20.942;2023-06-26T07:13:24;8.68;;;4.38;;
68923;SDS011;55961;52.156;20.942;2023-06-26T07:15:50;9.85;;;5.05;;
68923;SDS011;55961;52.156;20.942;2023-06-26T07:18:17;10.47;;;4.43;;
68923;SDS011;55961;52.156;20.942;2023-06-26T07:20:43;8.43;;;4.55;;
68923;SDS011;55961;52.156;20.942;2023-06-26T07:23:09;9.18;;;5.25;;
68923;SDS011;55961;52.156;20.942;2023-06-26T07:25:35;8.10;;;4.35;;
68923;SDS011;55961;52.156;20.942;2023-06-26T07:28:02;9.98;;;5.07;;
68923;SDS011;55961;52.156;20.942;2023-06-26T07:30:28;7.87;;;4.50;;
68923;SDS011;55961;52.156;20.942;2023-06-26T07:32:54;9.20;;;4.60;;
68923;SDS011;55961;52.156;20.942;2023-06-26T07:35:20;6.82;;;4.75;;
68923;SDS011;55961;52.156;20.942;2023-06-26T07:37:46;10.55;;;5.05;;
68923;SDS011;55961;52.156;20.942;2023-06-26T07:40:12;9.03;;;5.23;;
68923;SDS011;55961;52.156;20.942;2023-06-26T07:42:38;10.25;;;5.13;;
68923;SDS011;55961;52.156;20.942;2023-06-26T07:45:05;8.20;;;4.80;;
68923;SDS011;55961;52.156;20.942;2023-06-26T07:47:36;10.85;;;4.95;;
68923;SDS011;55961;52.156;20.942;2023-06-26T07:50:03;9.20;;;4.40;;
68923;SDS011;55961;52.156;20.942;2023-06-26T07:52:29;8.32;;;4.90;;
68923;SDS011;55961;52.156;20.942;2023-06-26T07:54:56;11.88;;;5.28;;
68923;SDS011;55961;52.156;20.942;2023-06-26T07:57:22;8.55;;;4.40;;
68923;SDS011;55961;52.156;20.942;2023-06-26T07:59:48;12.53;;;4.90;;
68923;SDS011;55961;52.156;20.942;2023-06-26T08:02:15;7.63;;;4.93;;
68923;SDS011;55961;52.156;20.942;2023-06-26T08:04:41;7.80;;;5.18;;
68923;SDS011;55961;52.156;20.942;2023-06-26T08:07:07;9.57;;;5.05;;
68923;SDS011;55961;52.156;20.942;2023-06-26T08:09:33;9.00;;;5.07;;
68923;SDS011;55961;52.156;20.942;2023-06-26T08:11:59;7.87;;;5.23;;
68923;SDS011;55961;52.156;20.942;2023-06-26T08:14:25;7.90;;;5.03;;
68923;SDS011;55961;52.156;20.942;2023-06-26T08:16:51;10.32;;;5.05;;
68923;SDS011;55961;52.156;20.942;2023-06-26T08:19:17;8.80;;;5.22;;
68923;SDS011;55961;52.156;20.942;2023-06-26T08:21:44;7.57;;;4.80;;
68923;SDS011;55961;52.156;20.942;2023-06-26T08:24:11;9.07;;;5.30;;
68923;SDS011;55961;52.156;20.942;2023-06-26T08:26:44;6.63;;;4.60;;
68923;SDS011;55961;52.156;20.942;2023-06-26T08:29:11;8.60;;;4.57;;
68923;SDS011;55961;52.156;20.942;2023-06-26T08:31:38;9.60;;;3.60;;
68923;SDS011;55961;52.156;20.942;2023-06-26T08:34:04;5.77;;;4.00;;
68923;SDS011;55961;52.156;20.942;2023-06-26T08:36:31;6.15;;;3.88;;
68923;SDS011;55961;52.156;20.942;2023-06-26T08:38:57;9.55;;;5.07;;
68923;SDS011;55961;52.156;20.942;2023-06-26T08:41:24;7.78;;;4.88;;
68923;SDS011;55961;52.156;20.942;2023-06-26T08:43:50;7.18;;;4.75;;
68923;SDS011;55961;52.156;20.942;2023-06-26T08:46:18;8.83;;;4.03;;
68923;SDS011;55961;52.156;20.942;2023-06-26T08:49:07;5.82;;;4.00;;
68923;SDS011;55961;52.156;20.942;2023-06-26T08:51:38;8.52;;;4.30;;
68923;SDS011;55961;52.156;20.942;2023-06-26T08:54:14;5.68;;;3.67;;
68923;SDS011;55961;52.156;20.942;2023-06-26T08:56:42;6.60;;;4.20;;
68923;SDS011;55961;52.156;20.942;2023-06-26T08:59:11;7.70;;;3.90;;
68923;SDS011;55961;52.156;20.942;2023-06-26T09:01:40;6.75;;;3.70;;
68923;SDS011;55961;52.156;20.942;2023-06-26T09:04:06;6.20;;;3.50;;
68923;SDS011;55961;52.156;20.942;2023-06-26T09:06:33;6.93;;;4.15;;
68923;SDS011;55961;52.156;20.942;2023-06-26T09:08:59;6.82;;;4.10;;
68923;SDS011;55961;52.156;20.942;2023-06-26T09:11:25;8.50;;;4.43;;
68923;SDS011;55961;52.156;20.942;2023-06-26T09:13:51;5.90;;;4.35;;
68923;SDS011;55961;52.156;20.942;2023-06-26T09:16:17;6.25;;;4.03;;
68923;SDS011;55961;52.156;20.942;2023-06-26T09:18:49;5.88;;;3.70;;
68923;SDS011;55961;52.156;20.942;2023-06-26T09:21:17;6.00;;;3.80;;
68923;SDS011;55961;52.156;20.942;2023-06-26T09:23:43;6.85;;;3.63;;
68923;SDS011;55961;52.156;20.942;2023-06-26T09:26:09;6.10;;;3.80;;
68923;SDS011;55961;52.156;20.942;2023-06-26T09:28:41;5.35;;;3.60;;
68923;SDS011;55961;52.156;20.942;2023-06-26T09:31:08;5.93;;;4.10;;
68923;SDS011;55961;52.156;20.942;2023-06-26T09:33:35;5.75;;;3.72;;
68923;SDS011;55961;52.156;20.942;2023-06-26T09:36:04;5.93;;;3.80;;
68923;SDS011;55961;52.156;20.942;2023-06-26T09:38:37;7.53;;;4.00;;
68923;SDS011;55961;52.156;20.942;2023-06-26T09:41:06;5.43;;;3.55;;
68923;SDS011;55961;52.156;20.942;2023-06-26T09:43:32;8.47;;;3.90;;
68923;SDS011;55961;52.156;20.942;2023-06-26T09:45:58;7.15;;;4.18;;
68923;SDS011;55961;52.156;20.942;2023-06-26T09:48:27;9.65;;;3.85;;
68923;SDS011;55961;52.156;20.942;2023-06-26T09:50:54;6.93;;;4.05;;
68923;SDS011;55961;52.156;20.942;2023-06-26T09:53:21;7.57;;;4.30;;
68923;SDS011;55961;52.156;20.942;2023-06-26T09:55:47;7.67;;;3.97;;
68923;SDS011;55961;52.156;20.942;2023-06-26T09:58:13;7.07;;;4.70;;
68923;SDS011;55961;52.156;20.942;2023-06-26T10:00:43;6.47;;;4.25;;
68923;SDS011;55961;52.156;20.942;2023-06-26T10:03:12;7.10;;;4.82;;
68923;SDS011;55961;52.156;20.942;2023-06-26T10:05:38;6.53;;;4.40;;
68923;SDS011;55961;52.156;20.942;2023-06-26T10:08:05;8.52;;;4.75;;
68923;SDS011;55961;52.156;20.942;2023-06-26T10:10:33;7.88;;;4.57;;
68923;SDS011;55961;52.156;20.942;2023-06-26T10:13:04;7.68;;;4.65;;
68923;SDS011;55961;52.156;20.942;2023-06-26T10:15:36;7.32;;;5.03;;
68923;SDS011;55961;52.156;20.942;2023-06-26T10:18:03;10.30;;;4.57;;
68923;SDS011;55961;52.156;20.942;2023-06-26T10:20:29;7.00;;;4.00;;
68923;SDS011;55961;52.156;20.942;2023-06-26T10:22:55;6.50;;;4.03;;
68923;SDS011;55961;52.156;20.942;2023-06-26T10:25:25;6.25;;;4.60;;
68923;SDS011;55961;52.156;20.942;2023-06-26T10:27:57;8.60;;;4.47;;
68923;SDS011;55961;52.156;20.942;2023-06-26T10:30:29;8.00;;;4.27;;
68923;SDS011;55961;52.156;20.942;2023-06-26T10:32:59;8.90;;;4.47;;
68923;SDS011;55961;52.156;20.942;2023-06-26T10:35:27;7.07;;;4.20;;
68923;SDS011;55961;52.156;20.942;2023-06-26T10:38:00;12.63;;;4.80;;
68923;SDS011;55961;52.156;20.942;2023-06-26T10:40:39;8.98;;;4.82;;
68923;SDS011;55961;52.156;20.942;2023-06-26T10:43:10;6.90;;;4.37;;
68923;SDS011;55961;52.156;20.942;2023-06-26T10:45:44;6.15;;;4.22;;
68923;SDS011;55961;52.156;20.942;2023-06-26T10:48:14;5.80;;;4.38;;
68923;SDS011;55961;52.156;20.942;2023-06-26T10:50:41;8.23;;;4.57;;
68923;SDS011;55961;52.156;20.942;2023-06-26T10:53:10;6.93;;;4.50;;
68923;SDS011;55961;52.156;20.942;2023-06-26T10:56:01;8.73;;;4.78;;
68923;SDS011;55961;52.156;20.942;2023-06-26T10:58:32;6.57;;;3.78;;
68923;SDS011;55961;52.156;20.942;2023-06-26T11:03:41;7.75;;;3.97;;
68923;SDS011;55961;52.156;20.942;2023-06-26T11:06:10;6.27;;;4.13;;
68923;SDS011;55961;52.156;20.942;2023-06-26T11:11:17;7.75;;;4.47;;
68923;SDS011;55961;52.156;20.942;2023-06-26T11:13:44;7.25;;;4.35;;
68923;SDS011;55961;52.156;20.942;2023-06-26T11:16:11;9.38;;;4.07;;
68923;SDS011;55961;52.156;20.942;2023-06-26T11:18:38;6.07;;;4.00;;
68923;SDS011;55961;52.156;20.942;2023-06-26T11:21:08;5.68;;;3.72;;
68923;SDS011;55961;52.156;20.942;2023-06-26T11:23:36;6.25;;;3.90;;
68923;SDS011;55961;52.156;20.942;2023-06-26T11:28:48;8.73;;;4.93;;
68923;SDS011;55961;52.156;20.942;2023-06-26T11:31:24;7.17;;;4.17;;
68923;SDS011;55961;52.156;20.942;2023-06-26T11:33:57;7.80;;;4.00;;
68923;SDS011;55961;52.156;20.942;2023-06-26T11:36:28;6.90;;;4.57;;
68923;SDS011;55961;52.156;20.942;2023-06-26T11:38:55;8.98;;;4.20;;
68923;SDS011;55961;52.156;20.942;2023-06-26T11:41:22;7.70;;;4.40;;
68923;SDS011;55961;52.156;20.942;2023-06-26T11:43:50;6.80;;;4.53;;
68923;SDS011;55961;52.156;20.942;2023-06-26T11:46:17;7.65;;;3.72;;
68923;SDS011;55961;52.156;20.942;2023-06-26T11:48:44;6.45;;;3.85;;
68923;SDS011;55961;52.156;20.942;2023-06-26T11:51:13;6.63;;;4.05;;
68923;SDS011;55961;52.156;20.942;2023-06-26T11:53:40;5.88;;;3.90;;
68923;SDS011;55961;52.156;20.942;2023-06-26T11:56:08;8.43;;;4.53;;
68923;SDS011;55961;52.156;20.942;2023-06-26T11:58:35;8.10;;;3.95;;
68923;SDS011;55961;52.156;20.942;2023-06-26T12:01:02;6.57;;;3.85;;
68923;SDS011;55961;52.156;20.942;2023-06-26T12:03:28;6.28;;;4.10;;
68923;SDS011;55961;52.156;20.942;2023-06-26T12:05:55;6.93;;;3.70;;
68923;SDS011;55961;52.156;20.942;2023-06-26T12:08:21;7.03;;;4.30;;
68923;SDS011;55961;52.156;20.942;2023-06-26T12:10:48;7.32;;;4.05;;
68923;SDS011;55961;52.156;20.942;2023-06-26T12:13:14;6.07;;;3.65;;
68923;SDS011;55961;52.156;20.942;2023-06-26T12:15:40;5.23;;;3.77;;
68923;SDS011;55961;52.156;20.942;2023-06-26T12:18:09;5.80;;;3.40;;
68923;SDS011;55961;52.156;20.942;2023-06-26T12:20:39;6.90;;;3.60;;
68923;SDS011;55961;52.156;20.942;2023-06-26T12:23:11;5.28;;;3.50;;
68923;SDS011;55961;52.156;20.942;2023-06-26T12:25:38;5.40;;;3.78;;
68923;SDS011;55961;52.156;20.942;2023-06-26T12:28:03;6.47;;;3.90;;
68923;SDS011;55961;52.156;20.942;2023-06-26T12:30:47;6.78;;;3.70;;
68923;SDS011;55961;52.156;20.942;2023-06-26T12:33:33;5.70;;;3.70;;
68923;SDS011;55961;52.156;20.942;2023-06-26T12:35:59;4.90;;;3.53;;
68923;SDS011;55961;52.156;20.942;2023-06-26T12:38:32;8.17;;;3.73;;
68923;SDS011;55961;52.156;20.942;2023-06-26T12:40:58;5.72;;;3.40;;
68923;SDS011;55961;52.156;20.942;2023-06-26T12:43:25;6.47;;;3.72;;
68923;SDS011;55961;52.156;20.942;2023-06-26T12:45:55;6.32;;;3.90;;
68923;SDS011;55961;52.156;20.942;2023-06-26T12:48:22;7.90;;;3.75;;
68923;SDS011;55961;52.156;20.942;2023-06-26T12:51:08;6.67;;;3.77;;
68923;SDS011;55961;52.156;20.942;2023-06-26T12:53:35;6.90;;;3.65;;
68923;SDS011;55961;52.156;20.942;2023-06-26T12:56:01;6.28;;;3.30;;
68923;SDS011;55961;52.156;20.942;2023-06-26T12:58:27;5.80;;;3.50;;
68923;SDS011;55961;52.156;20.942;2023-06-26T13:00:53;5.85;;;3.67;;
68923;SDS011;55961;52.156;20.942;2023-06-26T13:03:19;7.10;;;3.97;;
68923;SDS011;55961;52.156;20.942;2023-06-26T13:05:48;5.80;;;3.58;;
68923;SDS011;55961;52.156;20.942;2023-06-26T13:08:14;5.72;;;3.50;;
68923;SDS011;55961;52.156;20.942;2023-06-26T13:10:42;7.97;;;3.67;;
68923;SDS011;55961;52.156;20.942;2023-06-26T13:13:09;8.55;;;3.55;;
68923;SDS011;55961;52.156;20.942;2023-06-26T13:15:36;5.60;;;3.70;;
68923;SDS011;55961;52.156;20.942;2023-06-26T13:18:02;5.70;;;3.53;;
68923;SDS011;55961;52.156;20.942;2023-06-26T13:20:28;6.07;;;3.60;;
68923;SDS011;55961;52.156;20.942;2023-06-26T13:22:54;5.57;;;3.70;;
68923;SDS011;55961;52.156;20.942;2023-06-26T13:25:21;5.85;;;3.60;;
68923;SDS011;55961;52.156;20.942;2023-06-26T13:27:47;5.60;;;3.50;;
68923;SDS011;55961;52.156;20.942;2023-06-26T13:30:14;5.07;;;3.30;;
68923;SDS011;55961;52.156;20.942;2023-06-26T13:32:41;6.53;;;4.10;;
68923;SDS011;55961;52.156;20.942;2023-06-26T13:35:08;5.72;;;3.65;;
68923;SDS011;55961;52.156;20.942;2023-06-26T13:37:40;5.35;;;4.03;;
68923;SDS011;55961;52.156;20.942;2023-06-26T13:40:06;5.97;;;3.75;;
68923;SDS011;55961;52.156;20.942;2023-06-26T13:42:33;5.65;;;3.92;;
68923;SDS011;55961;52.156;20.942;2023-06-26T13:45:01;6.33;;;3.90;;
68923;SDS011;55961;52.156;20.942;2023-06-26T13:47:28;5.28;;;3.55;;
68923;SDS011;55961;52.156;20.942;2023-06-26T13:49:54;7.88;;;4.30;;
68923;SDS011;55961;52.156;20.942;2023-06-26T13:52:20;5.93;;;4.03;;
68923;SDS011;55961;52.156;20.942;2023-06-26T13:54:46;5.57;;;3.87;;
68923;SDS011;55961;52.156;20.942;2023-06-26T13:57:12;5.47;;;4.23;;
68923;SDS011;55961;52.156;20.942;2023-06-26T13:59:38;9.05;;;3.78;;
68923;SDS011;55961;52.156;20.942;2023-06-26T14:02:05;6.55;;;4.03;;
68923;SDS011;55961;52.156;20.942;2023-06-26T14:04:32;6.13;;;3.80;;
68923;SDS011;55961;52.156;20.942;2023-06-26T14:06:58;5.40;;;3.80;;
68923;SDS011;55961;52.156;20.942;2023-06-26T14:09:24;8.25;;;4.00;;
68923;SDS011;55961;52.156;20.942;2023-06-26T14:11:50;7.07;;;3.50;;
68923;SDS011;55961;52.156;20.942;2023-06-26T14:14:16;5.40;;;4.10;;
68923;SDS011;55961;52.156;20.942;2023-06-26T14:16:42;6.40;;;4.30;;
68923;SDS011;55961;52.156;20.942;2023-06-26T14:19:08;6.47;;;3.50;;
68923;SDS011;55961;52.156;20.942;2023-06-26T14:21:39;7.47;;;4.00;;
68923;SDS011;55961;52.156;20.942;2023-06-26T14:24:06;6.70;;;3.85;;
68923;SDS011;55961;52.156;20.942;2023-06-26T14:26:32;7.30;;;4.50;;
68923;SDS011;55961;52.156;20.942;2023-06-26T14:28:59;8.00;;;4.27;;
68923;SDS011;55961;52.156;20.942;2023-06-26T14:31:26;6.30;;;3.90;;
68923;SDS011;55961;52.156;20.942;2023-06-26T14:33:52;5.45;;;3.90;;
68923;SDS011;55961;52.156;20.942;2023-06-26T14:36:18;7.25;;;4.07;;
68923;SDS011;55961;52.156;20.942;2023-06-26T14:38:44;6.18;;;4.18;;
68923;SDS011;55961;52.156;20.942;2023-06-26T14:41:11;5.67;;;4.00;;
68923;SDS011;55961;52.156;20.942;2023-06-26T14:43:38;6.68;;;4.13;;
68923;SDS011;55961;52.156;20.942;2023-06-26T14:46:04;6.63;;;4.28;;